createdAt,value
2023-03-28T00:00:40.725Z,1.12
2023-03-28T00:01:40.709Z,1.10
2023-03-28T00:02:40.763Z,1.06
2023-03-28T00:03:40.894Z,1.06
2023-03-28T00:04:40.697Z,1.05
2023-03-28T00:05:40.731Z,1.13
2023-03-28T00:06:40.639Z,1.13
2023-03-28T00:07:40.652Z,1.19
2023-03-28T00:08:40.632Z,1.20
2023-03-28T00:09:40.605Z,1.23
2023-03-28T00:10:40.600Z,1.24
2023-03-28T00:11:40.589Z,1.24
2023-03-28T00:12:40.578Z,1.31
2023-03-28T00:13:40.565Z,1.32
2023-03-28T00:14:40.543Z,1.37
2023-03-28T00:15:40.585Z,1.40
2023-03-28T00:16:40.510Z,1.49
2023-03-28T00:17:40.543Z,1.45
2023-03-28T00:18:40.482Z,1.48
2023-03-28T00:19:40.484Z,1.45
2023-03-28T00:20:40.490Z,1.52
2023-03-28T00:21:40.446Z,1.49
2023-03-28T00:22:40.449Z,1.44
2023-03-28T00:23:40.420Z,1.45
2023-03-28T00:24:40.410Z,1.50
2023-03-28T00:25:40.407Z,1.45
2023-03-28T00:26:40.389Z,1.44
2023-03-28T00:27:40.377Z,1.42
2023-03-28T00:28:40.373Z,1.44
2023-03-28T00:29:40.343Z,1.45
2023-03-28T00:30:40.329Z,1.48
2023-03-28T00:31:40.433Z,1.48
2023-03-28T00:32:40.304Z,1.52
2023-03-28T00:33:40.302Z,1.53
2023-03-28T00:34:40.281Z,1.50
2023-03-28T00:35:40.292Z,1.44
2023-03-28T00:36:40.288Z,1.42
2023-03-28T00:37:40.246Z,1.37
2023-03-28T00:38:40.236Z,1.30
2023-03-28T00:39:40.213Z,1.31
2023-03-28T00:40:40.199Z,1.26
2023-03-28T00:41:40.195Z,1.23
2023-03-28T00:42:40.180Z,1.22
2023-03-28T00:43:40.170Z,1.26
2023-03-28T00:44:40.160Z,1.26
2023-03-28T00:45:40.145Z,1.26
2023-03-28T00:46:40.202Z,1.19
2023-03-28T00:47:40.152Z,1.20
2023-03-28T00:48:40.111Z,1.20
2023-03-28T00:49:40.082Z,1.16
2023-03-28T00:50:40.085Z,1.19
2023-03-28T00:51:40.059Z,1.20
2023-03-28T00:52:40.109Z,1.16
2023-03-28T00:53:40.062Z,1.13
2023-03-28T00:54:40.025Z,1.14
2023-03-28T00:55:40.006Z,1.16
2023-03-28T00:56:40.026Z,1.12
2023-03-28T00:57:39.988Z,1.16
2023-03-28T00:58:39.966Z,1.14
2023-03-28T00:59:39.967Z,1.12
2023-03-28T01:00:39.949Z,1.14
2023-03-28T01:01:39.950Z,1.10
2023-03-28T01:02:39.996Z,1.08
2023-03-28T01:03:39.995Z,1.06
2023-03-28T01:04:39.892Z,1.06
2023-03-28T01:05:39.884Z,1.08
2023-03-28T01:06:39.881Z,1.06
2023-03-28T01:07:39.848Z,1.01
2023-03-28T01:08:39.857Z,0.99
2023-03-28T01:09:39.820Z,0.95
2023-03-28T01:10:39.808Z,0.98
2023-03-28T01:11:39.838Z,0.96
2023-03-28T01:12:39.781Z,0.95
2023-03-28T01:13:39.774Z,0.95
2023-03-28T01:14:39.774Z,0.92
2023-03-28T01:15:39.745Z,0.92
2023-03-28T01:16:39.820Z,0.92
2023-03-28T01:17:39.758Z,0.95
2023-03-28T01:18:39.702Z,0.96
2023-03-28T01:19:39.706Z,0.94
2023-03-28T01:20:39.693Z,0.94
2023-03-28T01:21:39.683Z,0.94
2023-03-28T01:22:39.667Z,0.88
2023-03-28T01:23:39.652Z,0.86
2023-03-28T01:24:39.661Z,0.86
2023-03-28T01:25:39.620Z,0.80
2023-03-28T01:26:39.606Z,0.78
2023-03-28T01:27:39.590Z,0.83
2023-03-28T01:28:39.583Z,0.78
2023-03-28T01:29:39.562Z,0.81
2023-03-28T01:30:39.548Z,0.78
2023-03-28T01:31:39.552Z,0.77
2023-03-28T01:32:39.584Z,0.80
2023-03-28T01:33:39.509Z,0.78
2023-03-28T01:34:39.497Z,0.84
2023-03-28T01:35:39.511Z,0.80
2023-03-28T01:36:39.473Z,0.81
2023-03-28T01:37:39.464Z,0.80
2023-03-28T01:38:39.446Z,0.83
2023-03-28T01:39:39.440Z,0.81
2023-03-28T01:40:39.460Z,0.84
2023-03-28T01:41:39.410Z,0.84
2023-03-28T01:42:39.401Z,0.78
2023-03-28T01:43:39.388Z,0.81
2023-03-28T01:44:39.366Z,0.76
2023-03-28T01:45:39.396Z,0.81
2023-03-28T01:46:39.346Z,0.80
2023-03-28T01:47:39.387Z,0.84
2023-03-28T01:48:39.333Z,0.86
2023-03-28T01:49:39.314Z,0.88
2023-03-28T01:50:39.291Z,0.81
2023-03-28T01:51:39.285Z,0.83
2023-03-28T01:52:39.273Z,0.83
2023-03-28T01:53:39.252Z,0.83
2023-03-28T01:54:39.247Z,0.78
2023-03-28T01:55:41.716Z,0.80
2023-03-28T01:56:39.285Z,0.87
2023-03-28T01:57:39.310Z,0.84
2023-03-28T01:58:39.192Z,0.83
2023-03-28T01:59:39.180Z,0.87
2023-03-28T02:00:39.160Z,0.83
2023-03-28T02:01:39.194Z,0.88
2023-03-28T02:02:39.376Z,0.87
2023-03-28T02:03:39.148Z,0.87
2023-03-28T02:04:39.114Z,0.88
2023-03-28T02:05:39.106Z,0.94
2023-03-28T02:06:39.090Z,0.94
2023-03-28T02:07:39.082Z,0.99
2023-03-28T02:08:39.075Z,0.92
2023-03-28T02:09:39.048Z,0.96
2023-03-28T02:10:39.038Z,1.01
2023-03-28T02:11:39.025Z,0.95
2023-03-28T02:12:39.044Z,0.94
2023-03-28T02:13:39.016Z,0.88
2023-03-28T02:14:38.979Z,0.92
2023-03-28T02:15:38.974Z,0.99
2023-03-28T02:16:39.006Z,0.91
2023-03-28T02:17:39.002Z,0.91
2023-03-28T02:18:38.951Z,0.84
2023-03-28T02:19:38.931Z,0.78
2023-03-28T02:20:38.920Z,0.84
2023-03-28T02:21:38.900Z,0.83
2023-03-28T02:22:38.886Z,0.83
2023-03-28T02:23:38.879Z,0.83
2023-03-28T02:24:38.858Z,0.73
2023-03-28T02:25:38.855Z,0.76
2023-03-28T02:26:38.836Z,0.69
2023-03-28T02:27:38.818Z,0.69
2023-03-28T02:28:38.841Z,0.73
2023-03-28T02:29:38.801Z,0.59
2023-03-28T02:30:38.785Z,0.58
2023-03-28T02:31:38.845Z,0.56
2023-03-28T02:32:38.782Z,0.58
2023-03-28T02:33:38.768Z,0.47
2023-03-28T02:34:38.730Z,0.49
2023-03-28T02:35:38.738Z,0.46
2023-03-28T02:36:38.710Z,0.43
2023-03-28T02:37:38.692Z,0.46
2023-03-28T02:38:38.682Z,0.44
2023-03-28T02:39:38.673Z,0.43
2023-03-28T02:40:38.656Z,0.46
2023-03-28T02:41:38.650Z,0.43
2023-03-28T02:42:38.632Z,0.46
2023-03-28T02:43:38.624Z,0.44
2023-03-28T02:44:38.791Z,0.40
2023-03-28T02:45:38.601Z,0.44
2023-03-28T02:46:38.734Z,0.44
2023-03-28T02:47:38.571Z,0.46
2023-03-28T02:48:38.566Z,0.49
2023-03-28T02:49:49.495Z,0.47
2023-03-28T02:50:39.568Z,0.49
2023-03-28T02:51:38.528Z,0.52
2023-03-28T02:52:38.510Z,0.49
2023-03-28T02:53:38.505Z,0.46
2023-03-28T02:54:38.473Z,0.37
2023-03-28T02:55:38.461Z,0.39
2023-03-28T02:56:38.480Z,0.41
2023-03-28T02:57:38.474Z,0.41
2023-03-28T02:58:38.423Z,0.43
2023-03-28T02:59:38.419Z,0.40
2023-03-28T03:00:38.431Z,0.34
2023-03-28T03:01:38.460Z,0.34
2023-03-28T03:02:38.407Z,0.28
2023-03-28T03:03:38.416Z,0.29
2023-03-28T03:04:38.352Z,0.31
2023-03-28T03:05:38.338Z,0.28
2023-03-28T03:06:38.326Z,0.32
2023-03-28T03:07:38.313Z,0.29
2023-03-28T03:08:38.300Z,0.22
2023-03-28T03:09:38.289Z,0.19
2023-03-28T03:10:38.278Z,0.19
2023-03-28T03:11:38.279Z,0.19
2023-03-28T03:12:38.255Z,0.19
2023-03-28T03:13:38.235Z,0.16
2023-03-28T03:14:38.217Z,0.03
2023-03-28T03:15:38.258Z,0.03
2023-03-28T03:16:38.368Z,-0.03
2023-03-28T03:17:38.247Z,-0.06
2023-03-28T03:18:38.175Z,-0.07
2023-03-28T03:19:38.189Z,0.00
2023-03-28T03:20:38.147Z,0.01
2023-03-28T03:21:38.121Z,0.01
2023-03-28T03:22:38.130Z,-0.03
2023-03-28T03:23:38.107Z,0.00
2023-03-28T03:24:38.082Z,-0.06
2023-03-28T03:25:38.098Z,0.00
2023-03-28T03:26:38.062Z,-0.07
2023-03-28T03:27:38.048Z,-0.13
2023-03-28T03:28:38.033Z,-0.15
2023-03-28T03:29:38.457Z,-0.20
2023-03-28T03:30:38.001Z,-0.20
2023-03-28T03:31:38.051Z,-0.15
2023-03-28T03:32:38.036Z,-0.15
2023-03-28T03:33:37.975Z,-0.03
2023-03-28T03:34:37.966Z,-0.03
2023-03-28T03:35:38.036Z,-0.11
2023-03-28T03:36:37.937Z,0.00
2023-03-28T03:37:37.924Z,-0.02
2023-03-28T03:38:37.900Z,-0.03
2023-03-28T03:39:37.893Z,-0.13
2023-03-28T03:40:37.888Z,-0.21
2023-03-28T03:41:37.861Z,-0.28
2023-03-28T03:42:37.859Z,-0.32
2023-03-28T03:43:37.838Z,-0.43
2023-03-28T03:44:37.827Z,-0.52
2023-03-28T03:45:37.829Z,-0.44
2023-03-28T03:46:37.818Z,-0.50
2023-03-28T03:47:37.851Z,-0.54
2023-03-28T03:48:37.798Z,-0.61
2023-03-28T03:49:38.797Z,-0.67
2023-03-28T03:50:37.751Z,-0.67
2023-03-28T03:51:37.728Z,-0.65
2023-03-28T03:52:37.721Z,-0.64
2023-03-28T03:53:37.712Z,-0.53
2023-03-28T03:54:38.472Z,-0.50
2023-03-28T03:55:37.689Z,-0.43
2023-03-28T03:56:37.706Z,-0.41
2023-03-28T03:57:37.670Z,-0.44
2023-03-28T03:58:37.637Z,-0.47
2023-03-28T03:59:37.632Z,-0.50
2023-03-28T04:00:37.653Z,-0.61
2023-03-28T04:01:37.657Z,-0.56
2023-03-28T04:02:37.689Z,-0.61
2023-03-28T04:03:37.611Z,-0.53
2023-03-28T04:04:37.593Z,-0.56
2023-03-28T04:05:37.553Z,-0.49
2023-03-28T04:06:37.535Z,-0.46
2023-03-28T04:07:37.553Z,-0.49
2023-03-28T04:08:37.510Z,-0.46
2023-03-28T04:09:37.499Z,-0.46
2023-03-28T04:10:37.485Z,-0.47
2023-03-28T04:11:37.471Z,-0.47
2023-03-28T04:12:37.486Z,-0.52
2023-03-28T04:13:37.447Z,-0.43
2023-03-28T04:14:37.425Z,-0.47
2023-03-28T04:15:37.446Z,-0.49
2023-03-28T04:16:41.088Z,-0.57
2023-03-28T04:17:37.412Z,-0.64
2023-03-28T04:18:37.377Z,-0.71
2023-03-28T04:19:37.361Z,-0.74
2023-03-28T04:20:37.383Z,-0.75
2023-03-28T04:21:37.339Z,-0.74
2023-03-28T04:22:45.413Z,-0.75
2023-03-28T04:23:38.350Z,-0.80
2023-03-28T04:24:37.303Z,-0.80
2023-03-28T04:25:37.283Z,-0.80
2023-03-28T04:26:37.278Z,-0.80
2023-03-28T04:27:37.259Z,-0.86
2023-03-28T04:28:37.248Z,-0.85
2023-03-28T04:29:37.233Z,-0.89
2023-03-28T04:30:37.230Z,-0.93
2023-03-28T04:31:37.280Z,-1.01
2023-03-28T04:32:37.264Z,-0.97
2023-03-28T04:33:37.184Z,-1.01
2023-03-28T04:34:38.563Z,-1.07
2023-03-28T04:35:37.207Z,-1.05
2023-03-28T04:36:37.176Z,-1.08
2023-03-28T04:37:37.140Z,-1.04
2023-03-28T04:38:37.129Z,-0.99
2023-03-28T04:39:37.110Z,-1.07
2023-03-28T04:40:37.103Z,-1.04
2023-03-28T04:41:37.111Z,-0.97
2023-03-28T04:42:37.068Z,-1.01
2023-03-28T04:43:37.076Z,-0.96
2023-03-28T04:44:37.055Z,-0.99
2023-03-28T04:45:37.082Z,-1.05
2023-03-28T04:46:37.018Z,-1.08
2023-03-28T04:47:37.049Z,-1.02
2023-03-28T04:48:36.996Z,-1.02
2023-03-28T04:49:36.976Z,-1.07
2023-03-28T04:50:36.976Z,-1.17
2023-03-28T04:51:36.957Z,-1.22
2023-03-28T04:52:36.984Z,-1.26
2023-03-28T04:53:36.929Z,-1.25
2023-03-28T04:54:36.923Z,-1.29
2023-03-28T04:55:36.915Z,-1.38
2023-03-28T04:56:36.930Z,-1.30
2023-03-28T04:57:36.888Z,-1.23
2023-03-28T04:58:36.881Z,-1.20
2023-03-28T04:59:36.852Z,-1.19
2023-03-28T05:00:36.850Z,-1.17
2023-03-28T05:01:36.868Z,-1.09
2023-03-28T05:02:36.848Z,-1.04
2023-03-28T05:03:36.808Z,-0.99
2023-03-28T05:04:36.788Z,-0.99
2023-03-28T05:05:36.778Z,-0.93
2023-03-28T05:06:36.757Z,-0.91
2023-03-28T05:07:36.765Z,-0.97
2023-03-28T05:08:36.765Z,-0.96
2023-03-28T05:09:36.729Z,-1.02
2023-03-28T05:10:36.711Z,-1.12
2023-03-28T05:11:36.692Z,-1.15
2023-03-28T05:12:36.678Z,-1.23
2023-03-28T05:13:36.683Z,-1.15
2023-03-28T05:14:36.650Z,-1.22
2023-03-28T05:15:36.663Z,-1.25
2023-03-28T05:16:36.666Z,-1.23
2023-03-28T05:17:36.650Z,-1.32
2023-03-28T05:18:36.600Z,-1.38
2023-03-28T05:19:36.612Z,-1.33
2023-03-28T05:20:36.571Z,-1.37
2023-03-28T05:21:36.562Z,-1.40
2023-03-28T05:22:36.546Z,-1.37
2023-03-28T05:23:36.547Z,-1.27
2023-03-28T05:24:37.025Z,-1.23
2023-03-28T05:25:36.528Z,-1.25
2023-03-28T05:26:36.513Z,-1.09
2023-03-28T05:27:36.489Z,-1.08
2023-03-28T05:28:36.477Z,-1.12
2023-03-28T05:29:36.474Z,-1.11
2023-03-28T05:30:36.457Z,-1.19
2023-03-28T05:31:36.466Z,-1.20
2023-03-28T05:32:36.426Z,-1.17
2023-03-28T05:33:36.411Z,-1.15
2023-03-28T05:34:36.414Z,-1.12
2023-03-28T05:35:36.427Z,-1.08
2023-03-28T05:36:36.389Z,-1.07
2023-03-28T05:37:36.363Z,-1.05
2023-03-28T05:38:36.351Z,-1.02
2023-03-28T05:39:36.332Z,-0.99
2023-03-28T05:40:36.364Z,-1.01
2023-03-28T05:41:36.315Z,-0.96
2023-03-28T05:42:36.295Z,-1.02
2023-03-28T05:43:36.303Z,-1.02
2023-03-28T05:44:36.264Z,-0.97
2023-03-28T05:45:36.294Z,-0.97
2023-03-28T05:46:36.236Z,-0.94
2023-03-28T05:47:36.368Z,-0.91
2023-03-28T05:48:36.221Z,-0.93
2023-03-28T05:49:36.232Z,-0.80
2023-03-28T05:50:36.198Z,-0.80
2023-03-28T05:51:36.183Z,-0.83
2023-03-28T05:52:36.188Z,-0.77
2023-03-28T05:53:36.164Z,-0.75
2023-03-28T05:54:36.139Z,-0.77
2023-03-28T05:55:36.146Z,-0.75
2023-03-28T05:56:36.218Z,-0.70
2023-03-28T05:57:36.105Z,-0.70
2023-03-28T05:58:36.097Z,-0.67
2023-03-28T05:59:36.074Z,-0.59
2023-03-28T06:00:36.057Z,-0.62
2023-03-28T06:01:36.057Z,-0.67
2023-03-28T06:02:36.123Z,-0.67
2023-03-28T06:03:36.079Z,-0.65
2023-03-28T06:04:36.064Z,-0.61
2023-03-28T06:05:35.997Z,-0.62
2023-03-28T06:06:35.992Z,-0.64
2023-03-28T06:07:42.684Z,-0.54
2023-03-28T06:08:36.986Z,-0.54
2023-03-28T06:09:35.946Z,-0.61
2023-03-28T06:10:35.925Z,-0.50
2023-03-28T06:11:35.923Z,0.07
2023-03-28T06:12:35.943Z,0.99
2023-03-28T06:13:35.890Z,2.11
2023-03-28T06:14:35.874Z,3.07
2023-03-28T06:15:35.873Z,4.02
2023-03-28T06:16:35.938Z,4.84
2023-03-28T06:17:35.900Z,5.50
2023-03-28T06:18:35.829Z,5.87
2023-03-28T06:19:35.838Z,6.27
2023-03-28T06:20:35.810Z,6.46
2023-03-28T06:21:35.816Z,6.85
2023-03-28T06:22:35.772Z,6.79
2023-03-28T06:23:35.767Z,7.20
2023-03-28T06:24:35.758Z,7.79
2023-03-28T06:25:35.749Z,8.46
2023-03-28T06:26:35.719Z,8.79
2023-03-28T06:27:35.734Z,9.25
2023-03-28T06:28:35.720Z,9.73
2023-03-28T06:29:35.687Z,10.05
2023-03-28T06:30:35.681Z,10.25
2023-03-28T06:31:35.695Z,10.56
2023-03-28T06:32:35.672Z,11.07
2023-03-28T06:33:35.648Z,11.54
2023-03-28T06:34:35.629Z,11.80
2023-03-28T06:35:35.613Z,11.94
2023-03-28T06:36:35.607Z,11.70
2023-03-28T06:37:35.587Z,11.08
2023-03-28T06:38:35.575Z,11.10
2023-03-28T06:39:35.564Z,11.04
2023-03-28T06:40:35.556Z,11.50
2023-03-28T06:41:35.531Z,11.25
2023-03-28T06:42:35.528Z,10.94
2023-03-28T06:43:35.520Z,10.86
2023-03-28T06:44:35.524Z,11.32
2023-03-28T06:45:35.483Z,11.55
2023-03-28T06:46:35.534Z,12.29
2023-03-28T06:47:35.508Z,12.82
2023-03-28T06:48:36.559Z,12.80
2023-03-28T06:49:35.438Z,12.87
2023-03-28T06:50:35.428Z,13.42
2023-03-28T06:51:35.413Z,13.41
2023-03-28T06:52:35.399Z,13.60
2023-03-28T06:53:35.395Z,13.42
2023-03-28T06:54:35.374Z,13.57
2023-03-28T06:55:35.359Z,13.44
2023-03-28T06:56:35.400Z,13.20
2023-03-28T06:57:35.329Z,13.15
2023-03-28T06:58:35.320Z,12.98
2023-03-28T06:59:35.312Z,13.59
2023-03-28T07:00:35.311Z,13.30
2023-03-28T07:01:35.293Z,12.90
2023-03-28T07:02:35.372Z,13.09
2023-03-28T07:03:35.359Z,13.18
2023-03-28T07:04:35.258Z,13.39
2023-03-28T07:05:35.232Z,13.75
2023-03-28T07:06:35.221Z,14.11
2023-03-28T07:07:35.223Z,14.32
2023-03-28T07:08:35.187Z,14.60
2023-03-28T07:09:35.186Z,14.55
2023-03-28T07:10:35.172Z,14.73
2023-03-28T07:11:35.163Z,15.10
2023-03-28T07:12:35.136Z,15.44
2023-03-28T07:13:35.136Z,15.47
2023-03-28T07:14:35.129Z,15.62
2023-03-28T07:15:35.108Z,15.72
2023-03-28T07:16:35.229Z,15.40
2023-03-28T07:17:35.090Z,15.61
2023-03-28T07:18:35.069Z,15.62
2023-03-28T07:19:35.052Z,15.91
2023-03-28T07:20:35.045Z,15.84
2023-03-28T07:21:35.022Z,15.67
2023-03-28T07:22:35.018Z,14.92
2023-03-28T07:23:35.005Z,14.68
2023-03-28T07:24:35.002Z,14.73
2023-03-28T07:25:34.986Z,15.15
2023-03-28T07:26:34.973Z,15.47
2023-03-28T07:27:34.959Z,15.17
2023-03-28T07:28:34.941Z,15.37
2023-03-28T07:29:34.941Z,15.29
2023-03-28T07:30:34.910Z,15.35
2023-03-28T07:31:34.944Z,14.66
2023-03-28T07:32:43.250Z,13.85
2023-03-28T07:33:37.780Z,13.81
2023-03-28T07:34:34.863Z,13.53
2023-03-28T07:35:34.947Z,13.85
2023-03-28T07:36:34.842Z,13.62
2023-03-28T07:37:34.842Z,13.50
2023-03-28T07:38:34.805Z,13.53
2023-03-28T07:39:34.878Z,13.72
2023-03-28T07:40:34.818Z,13.87
2023-03-28T07:41:34.774Z,12.73
2023-03-28T07:42:34.762Z,11.54
2023-03-28T07:43:34.848Z,11.30
2023-03-28T07:44:34.810Z,11.43
2023-03-28T07:45:34.766Z,11.48
2023-03-28T07:46:34.713Z,11.60
2023-03-28T07:47:34.774Z,11.54
2023-03-28T07:48:34.721Z,11.44
2023-03-28T07:49:34.671Z,11.45
2023-03-28T07:50:34.660Z,11.11
2023-03-28T07:51:34.646Z,11.18
2023-03-28T07:52:34.638Z,10.82
2023-03-28T07:53:34.614Z,10.54
2023-03-28T07:54:34.611Z,10.31
2023-03-28T07:55:37.220Z,10.02
2023-03-28T07:56:35.664Z,10.04
2023-03-28T07:57:34.559Z,9.62
2023-03-28T07:58:34.567Z,9.22
2023-03-28T07:59:34.567Z,9.13
2023-03-28T08:00:34.520Z,8.79
2023-03-28T08:01:34.508Z,8.73
2023-03-28T08:02:34.545Z,8.76
2023-03-28T08:03:34.637Z,9.34
2023-03-28T08:04:34.499Z,10.60
2023-03-28T08:05:34.477Z,11.44
2023-03-28T08:06:34.450Z,12.29
2023-03-28T08:07:34.454Z,13.12
2023-03-28T08:08:34.424Z,13.49
2023-03-28T08:09:34.408Z,13.67
2023-03-28T08:10:34.390Z,13.68
2023-03-28T08:11:34.377Z,13.67
2023-03-28T08:12:34.388Z,12.57
2023-03-28T08:13:34.361Z,11.97
2023-03-28T08:14:34.342Z,11.99
2023-03-28T08:15:34.366Z,11.70
2023-03-28T08:16:34.394Z,11.22
2023-03-28T08:17:34.355Z,11.15
2023-03-28T08:18:34.303Z,10.71
2023-03-28T08:19:34.276Z,9.37
2023-03-28T08:20:34.318Z,8.48
2023-03-28T08:21:34.257Z,8.05
2023-03-28T08:22:34.245Z,7.54
2023-03-28T08:23:34.235Z,7.29
2023-03-28T08:24:36.166Z,6.78
2023-03-28T08:25:34.205Z,6.54
2023-03-28T08:26:34.193Z,6.45
2023-03-28T08:27:34.183Z,6.36
2023-03-28T08:28:34.179Z,5.99
2023-03-28T08:29:34.159Z,5.82
2023-03-28T08:30:34.141Z,5.57
2023-03-28T08:31:34.235Z,5.32
2023-03-28T08:32:34.170Z,5.12
2023-03-28T08:33:34.101Z,5.14
2023-03-28T08:34:34.124Z,5.17
2023-03-28T08:35:34.099Z,5.12
2023-03-28T08:36:34.092Z,5.05
2023-03-28T08:37:34.061Z,4.94
2023-03-28T08:38:34.038Z,4.82
2023-03-28T08:39:34.030Z,4.84
2023-03-28T08:40:34.019Z,4.75
2023-03-28T08:41:34.001Z,4.63
2023-03-28T08:42:33.997Z,4.38
2023-03-28T08:43:33.986Z,4.19
2023-03-28T08:44:33.975Z,4.17
2023-03-28T08:45:33.965Z,4.50
2023-03-28T08:46:33.984Z,5.02
2023-03-28T08:47:33.991Z,5.28
2023-03-28T08:48:33.924Z,5.23
2023-03-28T08:49:33.910Z,5.20
2023-03-28T08:50:33.899Z,5.14
2023-03-28T08:51:33.881Z,5.04
2023-03-28T08:52:33.890Z,4.94
2023-03-28T08:53:33.862Z,5.02
2023-03-28T08:54:33.840Z,4.90
2023-03-28T08:55:33.832Z,4.63
2023-03-28T08:56:33.822Z,4.53
2023-03-28T08:57:33.808Z,4.58
2023-03-28T08:58:33.793Z,4.63
2023-03-28T08:59:33.774Z,5.38
2023-03-28T09:00:33.779Z,5.93
2023-03-28T09:01:33.795Z,6.31
2023-03-28T09:02:33.866Z,6.19
2023-03-28T09:03:33.823Z,5.99
2023-03-28T09:04:33.722Z,5.90
2023-03-28T09:05:33.697Z,5.84
2023-03-28T09:06:33.683Z,5.76
2023-03-28T09:07:33.683Z,5.69
2023-03-28T09:08:33.750Z,5.56
2023-03-28T09:09:33.660Z,5.51
2023-03-28T09:10:33.643Z,5.51
2023-03-28T09:11:33.629Z,5.36
2023-03-28T09:12:33.606Z,5.14
2023-03-28T09:13:33.612Z,5.02
2023-03-28T09:14:33.596Z,5.00
2023-03-28T09:15:33.573Z,5.07
2023-03-28T09:16:33.621Z,5.00
2023-03-28T09:17:33.591Z,5.04
2023-03-28T09:18:33.539Z,4.96
2023-03-28T09:19:44.839Z,4.93
2023-03-28T09:20:34.540Z,4.99
2023-03-28T09:21:33.502Z,4.90
2023-03-28T09:22:33.489Z,4.92
2023-03-28T09:23:33.466Z,5.12
2023-03-28T09:24:33.501Z,5.15
2023-03-28T09:25:33.441Z,5.11
2023-03-28T09:26:33.428Z,5.00
2023-03-28T09:27:33.426Z,4.92
2023-03-28T09:28:33.401Z,4.84
2023-03-28T09:29:33.396Z,4.71
2023-03-28T09:30:33.377Z,4.71
2023-03-28T09:31:33.430Z,4.70
2023-03-28T09:32:33.374Z,4.66
2023-03-28T09:33:33.337Z,4.70
2023-03-28T09:34:33.320Z,4.77
2023-03-28T09:35:33.359Z,4.90
2023-03-28T09:36:45.463Z,4.99
2023-03-28T09:37:34.307Z,5.04
2023-03-28T09:38:33.284Z,4.99
2023-03-28T09:39:33.262Z,4.99
2023-03-28T09:40:33.294Z,5.00
2023-03-28T09:41:33.228Z,5.08
2023-03-28T09:42:33.236Z,5.04
2023-03-28T09:43:33.219Z,4.99
2023-03-28T09:44:38.440Z,5.00
2023-03-28T09:45:33.188Z,5.00
2023-03-28T09:46:33.172Z,4.99
2023-03-28T09:47:33.275Z,5.11
2023-03-28T09:48:33.254Z,5.20
2023-03-28T09:49:33.134Z,5.30
2023-03-28T09:50:33.127Z,5.39
2023-03-28T09:51:33.105Z,5.64
2023-03-28T09:52:33.097Z,5.76
2023-03-28T09:53:33.445Z,5.97
2023-03-28T09:54:33.075Z,6.20
2023-03-28T09:55:33.765Z,6.60
2023-03-28T09:56:33.087Z,7.05
2023-03-28T09:57:33.022Z,7.18
2023-03-28T09:58:33.015Z,7.31
2023-03-28T09:59:32.993Z,7.23
2023-03-28T10:00:32.996Z,7.35
2023-03-28T10:01:33.001Z,7.76
2023-03-28T10:02:33.090Z,7.88
2023-03-28T10:03:32.952Z,7.66
2023-03-28T10:04:32.961Z,7.24
2023-03-28T10:05:32.927Z,7.18
2023-03-28T10:06:32.913Z,7.24
2023-03-28T10:07:32.903Z,7.31
2023-03-28T10:08:32.896Z,7.11
2023-03-28T10:09:32.874Z,6.64
2023-03-28T10:10:32.844Z,6.60
2023-03-28T10:11:32.829Z,6.56
2023-03-28T10:12:32.852Z,6.67
2023-03-28T10:13:32.824Z,6.67
2023-03-28T10:14:32.805Z,6.54
2023-03-28T10:15:32.822Z,6.39
2023-03-28T10:16:32.770Z,6.14
2023-03-28T10:17:34.729Z,6.09
2023-03-28T10:18:32.740Z,6.12
2023-03-28T10:19:32.727Z,6.30
2023-03-28T10:20:32.731Z,6.51
2023-03-28T10:21:32.715Z,6.70
2023-03-28T10:22:32.698Z,6.77
2023-03-28T10:23:32.689Z,6.85
2023-03-28T10:24:32.682Z,7.03
2023-03-28T10:25:32.652Z,7.20
2023-03-28T10:26:32.645Z,7.31
2023-03-28T10:27:32.646Z,7.33
2023-03-28T10:28:32.641Z,7.33
2023-03-28T10:29:32.612Z,7.15
2023-03-28T10:30:32.593Z,7.11
2023-03-28T10:31:32.641Z,7.07
2023-03-28T10:32:32.600Z,6.96
2023-03-28T10:33:32.558Z,6.84
2023-03-28T10:34:32.539Z,6.84
2023-03-28T10:35:32.573Z,6.88
2023-03-28T10:36:32.540Z,6.67
2023-03-28T10:37:32.504Z,6.44
2023-03-28T10:38:32.481Z,6.46
2023-03-28T10:39:32.559Z,6.46
2023-03-28T10:40:32.585Z,6.44
2023-03-28T10:41:32.453Z,6.48
2023-03-28T10:42:32.433Z,6.56
2023-03-28T10:43:32.455Z,6.57
2023-03-28T10:44:32.455Z,6.60
2023-03-28T10:45:32.443Z,6.62
2023-03-28T10:46:32.565Z,6.69
2023-03-28T10:47:32.392Z,6.72
2023-03-28T10:48:32.409Z,6.82
2023-03-28T10:49:32.352Z,6.92
2023-03-28T10:50:33.528Z,6.97
2023-03-28T10:51:32.332Z,7.03
2023-03-28T10:52:32.312Z,6.88
2023-03-28T10:53:32.302Z,6.70
2023-03-28T10:54:32.317Z,6.74
2023-03-28T10:55:32.280Z,6.69
2023-03-28T10:56:32.265Z,6.74
2023-03-28T10:57:32.253Z,6.81
2023-03-28T10:58:32.245Z,6.79
2023-03-28T10:59:32.226Z,6.74
2023-03-28T11:00:32.250Z,6.74
2023-03-28T11:01:33.489Z,6.63
2023-03-28T11:02:32.280Z,6.75
2023-03-28T11:03:32.233Z,6.81
2023-03-28T11:04:32.154Z,6.75
2023-03-28T11:05:32.142Z,6.74
2023-03-28T11:06:32.132Z,6.82
2023-03-28T11:07:32.117Z,6.89
2023-03-28T11:08:32.121Z,6.92
2023-03-28T11:09:32.097Z,6.89
2023-03-28T11:10:32.086Z,6.93
2023-03-28T11:11:32.063Z,7.03
2023-03-28T11:12:38.076Z,7.13
2023-03-28T11:13:33.094Z,7.28
2023-03-28T11:14:32.036Z,7.33
2023-03-28T11:15:32.018Z,7.23
2023-03-28T11:16:32.094Z,7.17
2023-03-28T11:17:32.047Z,6.87
2023-03-28T11:18:32.002Z,6.77
2023-03-28T11:19:31.970Z,6.78
2023-03-28T11:20:31.956Z,6.84
2023-03-28T11:21:31.938Z,6.82
2023-03-28T11:22:31.924Z,6.97
2023-03-28T11:23:31.924Z,7.15
2023-03-28T11:24:31.898Z,7.31
2023-03-28T11:25:31.890Z,7.48
2023-03-28T11:26:31.882Z,7.56
2023-03-28T11:27:31.869Z,7.70
2023-03-28T11:28:31.855Z,7.80
2023-03-28T11:29:42.668Z,7.83
2023-03-28T11:30:32.863Z,7.91
2023-03-28T11:31:31.855Z,7.76
2023-03-28T11:32:31.854Z,7.82
2023-03-28T11:33:31.792Z,7.85
2023-03-28T11:34:31.781Z,7.80
2023-03-28T11:35:31.851Z,7.80
2023-03-28T11:36:31.749Z,7.83
2023-03-28T11:37:31.736Z,7.97
2023-03-28T11:38:31.722Z,7.98
2023-03-28T11:39:31.710Z,8.08
2023-03-28T11:40:31.698Z,8.15
2023-03-28T11:41:31.684Z,8.23
2023-03-28T11:42:31.692Z,8.13
2023-03-28T11:43:31.657Z,7.80
2023-03-28T11:44:31.638Z,7.61
2023-03-28T11:45:47.841Z,7.43
2023-03-28T11:46:32.744Z,7.38
2023-03-28T11:47:31.679Z,7.35
2023-03-28T11:48:31.623Z,7.39
2023-03-28T11:49:31.582Z,7.50
2023-03-28T11:50:31.579Z,7.70
2023-03-28T11:51:31.551Z,7.83
2023-03-28T11:52:31.534Z,8.00
2023-03-28T11:53:31.529Z,8.16
2023-03-28T11:54:31.524Z,8.28
2023-03-28T11:55:31.522Z,8.41
2023-03-28T11:56:31.490Z,8.48
2023-03-28T11:57:31.473Z,8.49
2023-03-28T11:58:31.470Z,8.46
2023-03-28T11:59:31.456Z,8.55
2023-03-28T12:00:33.970Z,8.51
2023-03-28T12:01:31.476Z,8.52
2023-03-28T12:02:31.565Z,8.53
2023-03-28T12:03:31.603Z,8.48
2023-03-28T12:04:31.461Z,8.45
2023-03-28T12:05:31.367Z,8.58
2023-03-28T12:06:31.366Z,8.74
2023-03-28T12:07:31.352Z,8.84
2023-03-28T12:08:31.329Z,8.87
2023-03-28T12:09:31.328Z,8.73
2023-03-28T12:10:31.312Z,8.64
2023-03-28T12:11:31.327Z,8.69
2023-03-28T12:12:31.281Z,8.81
2023-03-28T12:13:31.271Z,8.89
2023-03-28T12:14:31.269Z,8.97
2023-03-28T12:15:31.237Z,8.95
2023-03-28T12:16:31.249Z,8.99
2023-03-28T12:17:31.239Z,8.88
2023-03-28T12:18:31.210Z,8.55
2023-03-28T12:19:31.193Z,8.42
2023-03-28T12:20:31.209Z,8.42
2023-03-28T12:21:31.172Z,8.28
2023-03-28T12:22:31.166Z,8.31
2023-03-28T12:23:31.136Z,8.36
2023-03-28T12:24:31.140Z,8.38
2023-03-28T12:25:31.143Z,8.44
2023-03-28T12:26:31.113Z,8.49
2023-03-28T12:27:31.096Z,8.46
2023-03-28T12:28:31.072Z,8.45
2023-03-28T12:29:31.066Z,8.41
2023-03-28T12:30:31.081Z,8.33
2023-03-28T12:31:31.094Z,8.33
2023-03-28T12:32:31.133Z,8.33
2023-03-28T12:33:31.035Z,8.34
2023-03-28T12:34:31.005Z,8.28
2023-03-28T12:35:31.048Z,8.05
2023-03-28T12:36:31.007Z,7.95
2023-03-28T12:37:30.968Z,7.91
2023-03-28T12:38:30.952Z,7.66
2023-03-28T12:39:30.942Z,7.47
2023-03-28T12:40:30.924Z,7.40
2023-03-28T12:41:30.924Z,7.39
2023-03-28T12:42:30.926Z,7.38
2023-03-28T12:43:30.901Z,7.31
2023-03-28T12:44:30.878Z,7.36
2023-03-28T12:45:30.883Z,7.56
2023-03-28T12:46:30.985Z,7.73
2023-03-28T12:47:30.867Z,7.82
2023-03-28T12:48:30.816Z,7.95
2023-03-28T12:49:30.813Z,8.13
2023-03-28T12:50:30.791Z,8.28
2023-03-28T12:51:30.789Z,8.34
2023-03-28T12:52:30.817Z,8.44
2023-03-28T12:53:30.759Z,8.45
2023-03-28T12:54:30.757Z,8.55
2023-03-28T12:55:30.728Z,8.67
2023-03-28T12:56:30.723Z,8.67
2023-03-28T12:57:36.469Z,8.71
2023-03-28T12:58:30.705Z,8.69
2023-03-28T12:59:30.852Z,8.74
2023-03-28T13:00:30.676Z,8.82
2023-03-28T13:01:30.696Z,8.87
2023-03-28T13:02:30.686Z,8.91
2023-03-28T13:03:30.636Z,8.87
2023-03-28T13:04:30.630Z,8.81
2023-03-28T13:05:30.610Z,8.48
2023-03-28T13:06:30.603Z,8.44
2023-03-28T13:07:30.580Z,8.41
2023-03-28T13:08:30.607Z,8.46
2023-03-28T13:09:30.559Z,8.26